KAUO/AUO METAR and TAF weather

Enter ICAO airport designator
Station Type Date Time Source
KAUO METAR 2019/02/23 01:56 UTC NOAA

KAUO 230156Z AUTO 17006KT 10SM FEW100 22/18 A3015 RMK AO2 SLPNO T02170178


Station Type Date Time Source
KAUO Decoded METAR 2019/02/23 01:56 UTC NOAA

Auburn-Opelika Airport, AL, United States (KAUO) 32-37N 085-26W
Feb 22, 2019 - 08:56 PM EST / 2019.02.23 0156 UTC
Wind: from the S (170 degrees) at 7 MPH (6 KT):0
Visibility: 10 mile(s):0
Sky conditions: mostly clear
Temperature: 71.1 F (21.7 C)
Dew Point: 64.0 F (17.8 C)
Relative Humidity: 78%
Pressure (altimeter): 30.15 in. Hg (1020 hPa)
ob: KAUO 230156Z AUTO 17006KT 10SM FEW100 22/18 A3015 RMK AO2 SLPNO T02170178
cycle: 2

Station Type Date Time Source
KAUO TAF UTC NOAA

Error!


Example: see airport list